sensor_id;sensor_type;location;lat;lon;timestamp;P1;durP1;ratioP1;P2;durP2;ratioP2
75589;SDS011;64169;47.240;11.312;2022-12-18T00:01:16;10.77;;;5.82;;
75589;SDS011;64169;47.240;11.312;2022-12-18T00:04:03;16.05;;;6.68;;
75589;SDS011;64169;47.240;11.312;2022-12-18T00:06:29;12.95;;;4.63;;
75589;SDS011;64169;47.240;11.312;2022-12-18T00:08:56;13.30;;;4.53;;
75589;SDS011;64169;47.240;11.312;2022-12-18T00:11:23;11.20;;;5.40;;
75589;SDS011;64169;47.240;11.312;2022-12-18T00:13:50;14.57;;;6.22;;
75589;SDS011;64169;47.240;11.312;2022-12-18T00:16:17;13.68;;;5.80;;
75589;SDS011;64169;47.240;11.312;2022-12-18T00:18:46;16.73;;;6.10;;
75589;SDS011;64169;47.240;11.312;2022-12-18T00:21:12;12.98;;;5.20;;
75589;SDS011;64169;47.240;11.312;2022-12-18T00:23:39;14.68;;;4.90;;
75589;SDS011;64169;47.240;11.312;2022-12-18T00:26:06;12.18;;;7.05;;
75589;SDS011;64169;47.240;11.312;2022-12-18T00:28:34;13.30;;;4.78;;
75589;SDS011;64169;47.240;11.312;2022-12-18T00:31:07;13.05;;;6.13;;
75589;SDS011;64169;47.240;11.312;2022-12-18T00:33:34;11.15;;;5.78;;
75589;SDS011;64169;47.240;11.312;2022-12-18T00:36:01;13.40;;;5.82;;
75589;SDS011;64169;47.240;11.312;2022-12-18T00:38:30;12.25;;;5.50;;
75589;SDS011;64169;47.240;11.312;2022-12-18T00:40:56;15.05;;;5.43;;
75589;SDS011;64169;47.240;11.312;2022-12-18T00:43:22;14.32;;;5.97;;
75589;SDS011;64169;47.240;11.312;2022-12-18T00:45:47;14.98;;;6.15;;
75589;SDS011;64169;47.240;11.312;2022-12-18T00:48:12;17.10;;;7.07;;
75589;SDS011;64169;47.240;11.312;2022-12-18T00:50:38;12.65;;;6.20;;
75589;SDS011;64169;47.240;11.312;2022-12-18T00:53:03;10.75;;;4.95;;
75589;SDS011;64169;47.240;11.312;2022-12-18T00:55:29;12.15;;;4.97;;
75589;SDS011;64169;47.240;11.312;2022-12-18T00:57:54;12.77;;;6.65;;
75589;SDS011;64169;47.240;11.312;2022-12-18T01:00:19;13.68;;;5.75;;
75589;SDS011;64169;47.240;11.312;2022-12-18T01:02:45;12.18;;;5.28;;
75589;SDS011;64169;47.240;11.312;2022-12-18T01:05:11;10.75;;;5.82;;
75589;SDS011;64169;47.240;11.312;2022-12-18T01:07:37;10.18;;;4.53;;
75589;SDS011;64169;47.240;11.312;2022-12-18T01:10:04;11.30;;;5.78;;
75589;SDS011;64169;47.240;11.312;2022-12-18T01:12:30;14.38;;;6.35;;
75589;SDS011;64169;47.240;11.312;2022-12-18T01:14:55;16.98;;;5.90;;
75589;SDS011;64169;47.240;11.312;2022-12-18T01:17:21;11.57;;;4.80;;
75589;SDS011;64169;47.240;11.312;2022-12-18T01:19:47;15.27;;;5.75;;
75589;SDS011;64169;47.240;11.312;2022-12-18T01:22:12;12.57;;;5.70;;
75589;SDS011;64169;47.240;11.312;2022-12-18T01:24:37;14.85;;;6.93;;
75589;SDS011;64169;47.240;11.312;2022-12-18T01:27:03;14.07;;;7.15;;
75589;SDS011;64169;47.240;11.312;2022-12-18T01:29:28;16.77;;;8.23;;
75589;SDS011;64169;47.240;11.312;2022-12-18T01:31:57;14.63;;;6.82;;
75589;SDS011;64169;47.240;11.312;2022-12-18T01:34:23;15.27;;;6.55;;
75589;SDS011;64169;47.240;11.312;2022-12-18T01:36:48;17.48;;;7.15;;
75589;SDS011;64169;47.240;11.312;2022-12-18T01:39:17;11.25;;;5.78;;
75589;SDS011;64169;47.240;11.312;2022-12-18T01:41:43;18.15;;;7.85;;
75589;SDS011;64169;47.240;11.312;2022-12-18T01:47:15;12.50;;;5.03;;
75589;SDS011;64169;47.240;11.312;2022-12-18T01:49:45;17.35;;;6.20;;
75589;SDS011;64169;47.240;11.312;2022-12-18T01:52:10;14.35;;;6.85;;
75589;SDS011;64169;47.240;11.312;2022-12-18T01:54:36;13.10;;;4.68;;
75589;SDS011;64169;47.240;11.312;2022-12-18T01:57:01;14.68;;;6.70;;
75589;SDS011;64169;47.240;11.312;2022-12-18T01:59:27;19.42;;;7.35;;
75589;SDS011;64169;47.240;11.312;2022-12-18T02:01:53;8.15;;;4.72;;
75589;SDS011;64169;47.240;11.312;2022-12-18T02:04:22;12.20;;;4.75;;
75589;SDS011;64169;47.240;11.312;2022-12-18T02:09:59;12.20;;;4.97;;
75589;SDS011;64169;47.240;11.312;2022-12-18T02:15:38;9.95;;;4.35;;
75589;SDS011;64169;47.240;11.312;2022-12-18T02:18:10;12.52;;;4.45;;
75589;SDS011;64169;47.240;11.312;2022-12-18T02:28:46;8.32;;;3.72;;
75589;SDS011;64169;47.240;11.312;2022-12-18T02:31:23;8.60;;;3.53;;
75589;SDS011;64169;47.240;11.312;2022-12-18T02:33:52;8.07;;;4.40;;
75589;SDS011;64169;47.240;11.312;2022-12-18T02:36:21;14.93;;;4.50;;
75589;SDS011;64169;47.240;11.312;2022-12-18T02:38:48;10.82;;;4.82;;
75589;SDS011;64169;47.240;11.312;2022-12-18T02:41:14;5.88;;;2.00;;
75589;SDS011;64169;47.240;11.312;2022-12-18T02:43:45;10.27;;;3.95;;
75589;SDS011;64169;47.240;11.312;2022-12-18T02:48:54;8.70;;;3.35;;
75589;SDS011;64169;47.240;11.312;2022-12-18T02:51:37;17.95;;;4.75;;
75589;SDS011;64169;47.240;11.312;2022-12-18T02:54:09;7.00;;;3.55;;
75589;SDS011;64169;47.240;11.312;2022-12-18T02:56:47;5.50;;;2.65;;
75589;SDS011;64169;47.240;11.312;2022-12-18T02:59:18;8.38;;;3.03;;
75589;SDS011;64169;47.240;11.312;2022-12-18T03:01:52;6.60;;;2.55;;
75589;SDS011;64169;47.240;11.312;2022-12-18T03:04:25;7.43;;;3.45;;
75589;SDS011;64169;47.240;11.312;2022-12-18T03:06:55;7.85;;;2.45;;
75589;SDS011;64169;47.240;11.312;2022-12-18T03:09:24;5.78;;;2.90;;
75589;SDS011;64169;47.240;11.312;2022-12-18T03:11:56;8.68;;;3.38;;
75589;SDS011;64169;47.240;11.312;2022-12-18T03:14:44;7.55;;;2.97;;
75589;SDS011;64169;47.240;11.312;2022-12-18T03:17:10;5.85;;;1.48;;
75589;SDS011;64169;47.240;11.312;2022-12-18T03:19:38;5.70;;;2.47;;
75589;SDS011;64169;47.240;11.312;2022-12-18T03:22:05;2.97;;;1.13;;
75589;SDS011;64169;47.240;11.312;2022-12-18T03:24:32;4.45;;;2.10;;
75589;SDS011;64169;47.240;11.312;2022-12-18T03:27:00;5.30;;;2.80;;
75589;SDS011;64169;47.240;11.312;2022-12-18T03:29:33;6.63;;;2.65;;
75589;SDS011;64169;47.240;11.312;2022-12-18T03:32:28;6.80;;;3.20;;
75589;SDS011;64169;47.240;11.312;2022-12-18T03:34:55;4.13;;;2.33;;
75589;SDS011;64169;47.240;11.312;2022-12-18T03:37:23;5.40;;;2.28;;
75589;SDS011;64169;47.240;11.312;2022-12-18T03:39:49;4.65;;;2.40;;
75589;SDS011;64169;47.240;11.312;2022-12-18T03:55:03;5.60;;;2.33;;
75589;SDS011;64169;47.240;11.312;2022-12-18T03:57:31;5.60;;;2.28;;
75589;SDS011;64169;47.240;11.312;2022-12-18T04:00:08;4.07;;;2.35;;
75589;SDS011;64169;47.240;11.312;2022-12-18T04:02:36;4.65;;;2.63;;
75589;SDS011;64169;47.240;11.312;2022-12-18T04:05:04;4.07;;;1.92;;
75589;SDS011;64169;47.240;11.312;2022-12-18T04:07:30;3.35;;;1.73;;
75589;SDS011;64169;47.240;11.312;2022-12-18T04:09:56;5.80;;;2.08;;
75589;SDS011;64169;47.240;11.312;2022-12-18T04:12:28;3.45;;;1.25;;
75589;SDS011;64169;47.240;11.312;2022-12-18T04:14:54;2.70;;;1.33;;
75589;SDS011;64169;47.240;11.312;2022-12-18T04:17:20;6.20;;;2.70;;
75589;SDS011;64169;47.240;11.312;2022-12-18T04:19:46;4.07;;;1.70;;
75589;SDS011;64169;47.240;11.312;2022-12-18T04:22:11;3.10;;;1.55;;
75589;SDS011;64169;47.240;11.312;2022-12-18T04:24:37;4.45;;;1.42;;
75589;SDS011;64169;47.240;11.312;2022-12-18T04:27:02;5.25;;;1.85;;
75589;SDS011;64169;47.240;11.312;2022-12-18T04:29:28;3.80;;;1.73;;
75589;SDS011;64169;47.240;11.312;2022-12-18T04:31:54;4.97;;;2.28;;
75589;SDS011;64169;47.240;11.312;2022-12-18T04:34:19;1.48;;;1.00;;
75589;SDS011;64169;47.240;11.312;2022-12-18T04:36:45;5.63;;;2.15;;
75589;SDS011;64169;47.240;11.312;2022-12-18T04:39:10;4.45;;;1.52;;
75589;SDS011;64169;47.240;11.312;2022-12-18T04:41:36;5.47;;;2.30;;
75589;SDS011;64169;47.240;11.312;2022-12-18T04:44:01;3.00;;;1.17;;
75589;SDS011;64169;47.240;11.312;2022-12-18T04:46:27;3.90;;;2.25;;
75589;SDS011;64169;47.240;11.312;2022-12-18T04:48:52;4.45;;;1.67;;
75589;SDS011;64169;47.240;11.312;2022-12-18T04:51:18;3.50;;;1.85;;
75589;SDS011;64169;47.240;11.312;2022-12-18T04:53:43;4.18;;;1.88;;
75589;SDS011;64169;47.240;11.312;2022-12-18T04:56:12;4.38;;;1.88;;
75589;SDS011;64169;47.240;11.312;2022-12-18T04:58:39;4.25;;;1.63;;
75589;SDS011;64169;47.240;11.312;2022-12-18T05:01:06;4.28;;;1.92;;
75589;SDS011;64169;47.240;11.312;2022-12-18T05:03:32;3.67;;;1.27;;
75589;SDS011;64169;47.240;11.312;2022-12-18T05:05:58;4.18;;;2.22;;
75589;SDS011;64169;47.240;11.312;2022-12-18T05:08:24;3.75;;;1.77;;
75589;SDS011;64169;47.240;11.312;2022-12-18T05:10:49;5.35;;;1.85;;
75589;SDS011;64169;47.240;11.312;2022-12-18T05:13:14;9.93;;;2.28;;
75589;SDS011;64169;47.240;11.312;2022-12-18T05:15:40;3.40;;;0.88;;
75589;SDS011;64169;47.240;11.312;2022-12-18T05:18:06;5.18;;;2.38;;
75589;SDS011;64169;47.240;11.312;2022-12-18T05:20:32;6.45;;;3.10;;
75589;SDS011;64169;47.240;11.312;2022-12-18T05:22:57;12.10;;;4.65;;
75589;SDS011;64169;47.240;11.312;2022-12-18T05:25:23;3.15;;;1.40;;
75589;SDS011;64169;47.240;11.312;2022-12-18T05:27:49;3.72;;;1.67;;
75589;SDS011;64169;47.240;11.312;2022-12-18T05:30:14;4.72;;;1.85;;
75589;SDS011;64169;47.240;11.312;2022-12-18T05:32:40;3.80;;;2.03;;
75589;SDS011;64169;47.240;11.312;2022-12-18T05:35:07;4.55;;;1.90;;
75589;SDS011;64169;47.240;11.312;2022-12-18T05:37:33;4.88;;;1.95;;
75589;SDS011;64169;47.240;11.312;2022-12-18T05:39:59;5.25;;;1.88;;
75589;SDS011;64169;47.240;11.312;2022-12-18T05:42:24;4.32;;;1.40;;
75589;SDS011;64169;47.240;11.312;2022-12-18T05:44:50;6.28;;;2.92;;
75589;SDS011;64169;47.240;11.312;2022-12-18T05:47:15;4.38;;;1.83;;
75589;SDS011;64169;47.240;11.312;2022-12-18T05:49:41;5.15;;;2.38;;
75589;SDS011;64169;47.240;11.312;2022-12-18T05:52:06;1.52;;;0.85;;
75589;SDS011;64169;47.240;11.312;2022-12-18T05:54:31;1.38;;;0.75;;
75589;SDS011;64169;47.240;11.312;2022-12-18T05:56:57;5.07;;;1.67;;
75589;SDS011;64169;47.240;11.312;2022-12-18T05:59:23;3.47;;;1.90;;
75589;SDS011;64169;47.240;11.312;2022-12-18T06:01:49;4.03;;;1.60;;
75589;SDS011;64169;47.240;11.312;2022-12-18T06:04:14;5.40;;;2.28;;
75589;SDS011;64169;47.240;11.312;2022-12-18T06:06:39;4.60;;;1.83;;
75589;SDS011;64169;47.240;11.312;2022-12-18T06:09:05;5.90;;;1.80;;
75589;SDS011;64169;47.240;11.312;2022-12-18T06:11:33;2.65;;;1.35;;
75589;SDS011;64169;47.240;11.312;2022-12-18T06:13:59;3.33;;;1.55;;
75589;SDS011;64169;47.240;11.312;2022-12-18T06:16:26;2.67;;;1.70;;
75589;SDS011;64169;47.240;11.312;2022-12-18T06:18:52;6.15;;;2.08;;
75589;SDS011;64169;47.240;11.312;2022-12-18T06:21:18;3.40;;;1.33;;
75589;SDS011;64169;47.240;11.312;2022-12-18T06:23:43;3.20;;;1.67;;
75589;SDS011;64169;47.240;11.312;2022-12-18T06:26:10;2.83;;;1.10;;
75589;SDS011;64169;47.240;11.312;2022-12-18T06:28:36;0.98;;;0.70;;
75589;SDS011;64169;47.240;11.312;2022-12-18T06:31:04;2.00;;;0.90;;
75589;SDS011;64169;47.240;11.312;2022-12-18T06:33:30;3.97;;;0.98;;
75589;SDS011;64169;47.240;11.312;2022-12-18T06:36:00;2.88;;;1.42;;
75589;SDS011;64169;47.240;11.312;2022-12-18T06:38:26;3.42;;;1.48;;
75589;SDS011;64169;47.240;11.312;2022-12-18T06:40:52;6.70;;;3.85;;
75589;SDS011;64169;47.240;11.312;2022-12-18T06:43:17;8.65;;;3.25;;
75589;SDS011;64169;47.240;11.312;2022-12-18T06:45:42;4.15;;;2.28;;
75589;SDS011;64169;47.240;11.312;2022-12-18T06:48:08;4.38;;;1.48;;
75589;SDS011;64169;47.240;11.312;2022-12-18T06:50:33;3.22;;;1.27;;
75589;SDS011;64169;47.240;11.312;2022-12-18T06:52:59;3.50;;;1.58;;
75589;SDS011;64169;47.240;11.312;2022-12-18T06:55:24;2.47;;;1.20;;
75589;SDS011;64169;47.240;11.312;2022-12-18T06:57:50;2.45;;;1.15;;
75589;SDS011;64169;47.240;11.312;2022-12-18T07:00:16;5.95;;;2.85;;
75589;SDS011;64169;47.240;11.312;2022-12-18T07:02:41;6.07;;;2.03;;
75589;SDS011;64169;47.240;11.312;2022-12-18T07:05:07;1.35;;;0.60;;
75589;SDS011;64169;47.240;11.312;2022-12-18T07:07:33;2.95;;;1.27;;
75589;SDS011;64169;47.240;11.312;2022-12-18T07:09:59;2.17;;;1.02;;
75589;SDS011;64169;47.240;11.312;2022-12-18T07:12:26;3.35;;;1.20;;
75589;SDS011;64169;47.240;11.312;2022-12-18T07:14:52;1.48;;;0.88;;
75589;SDS011;64169;47.240;11.312;2022-12-18T07:17:17;1.38;;;0.75;;
75589;SDS011;64169;47.240;11.312;2022-12-18T07:19:42;2.30;;;1.35;;
75589;SDS011;64169;47.240;11.312;2022-12-18T07:22:08;8.27;;;3.00;;
75589;SDS011;64169;47.240;11.312;2022-12-18T07:24:33;6.32;;;1.73;;
75589;SDS011;64169;47.240;11.312;2022-12-18T07:26:59;4.97;;;2.30;;
75589;SDS011;64169;47.240;11.312;2022-12-18T07:29:25;5.38;;;1.75;;
75589;SDS011;64169;47.240;11.312;2022-12-18T07:31:50;3.83;;;1.80;;
75589;SDS011;64169;47.240;11.312;2022-12-18T07:34:16;5.78;;;2.92;;
75589;SDS011;64169;47.240;11.312;2022-12-18T07:36:41;6.00;;;2.60;;
75589;SDS011;64169;47.240;11.312;2022-12-18T07:39:07;5.25;;;2.03;;
75589;SDS011;64169;47.240;11.312;2022-12-18T07:41:32;6.40;;;2.58;;
75589;SDS011;64169;47.240;11.312;2022-12-18T07:43:58;4.30;;;1.90;;
75589;SDS011;64169;47.240;11.312;2022-12-18T07:46:23;3.70;;;1.67;;
75589;SDS011;64169;47.240;11.312;2022-12-18T07:48:49;4.38;;;1.80;;
75589;SDS011;64169;47.240;11.312;2022-12-18T07:51:14;4.65;;;2.15;;
75589;SDS011;64169;47.240;11.312;2022-12-18T07:53:40;3.80;;;1.40;;
75589;SDS011;64169;47.240;11.312;2022-12-18T07:56:07;6.88;;;3.08;;
75589;SDS011;64169;47.240;11.312;2022-12-18T07:58:34;6.35;;;2.55;;
75589;SDS011;64169;47.240;11.312;2022-12-18T08:01:06;10.90;;;3.75;;
75589;SDS011;64169;47.240;11.312;2022-12-18T08:03:33;7.72;;;2.70;;
75589;SDS011;64169;47.240;11.312;2022-12-18T08:06:00;5.22;;;2.10;;
75589;SDS011;64169;47.240;11.312;2022-12-18T08:08:26;5.32;;;1.67;;
75589;SDS011;64169;47.240;11.312;2022-12-18T08:10:52;4.03;;;1.67;;
75589;SDS011;64169;47.240;11.312;2022-12-18T08:13:18;3.78;;;1.48;;
75589;SDS011;64169;47.240;11.312;2022-12-18T08:15:43;2.05;;;1.08;;
75589;SDS011;64169;47.240;11.312;2022-12-18T08:18:08;3.33;;;1.48;;
75589;SDS011;64169;47.240;11.312;2022-12-18T08:20:34;3.10;;;1.23;;
75589;SDS011;64169;47.240;11.312;2022-12-18T08:22:59;6.90;;;3.05;;
75589;SDS011;64169;47.240;11.312;2022-12-18T08:25:25;4.30;;;2.45;;
75589;SDS011;64169;47.240;11.312;2022-12-18T08:27:50;2.63;;;1.65;;
75589;SDS011;64169;47.240;11.312;2022-12-18T08:30:15;5.43;;;3.03;;
75589;SDS011;64169;47.240;11.312;2022-12-18T08:32:41;6.03;;;2.28;;
75589;SDS011;64169;47.240;11.312;2022-12-18T08:35:06;10.60;;;3.47;;
75589;SDS011;64169;47.240;11.312;2022-12-18T08:37:33;9.00;;;3.53;;
75589;SDS011;64169;47.240;11.312;2022-12-18T08:39:58;8.32;;;3.80;;
75589;SDS011;64169;47.240;11.312;2022-12-18T08:42:24;8.88;;;4.00;;
75589;SDS011;64169;47.240;11.312;2022-12-18T08:45:08;13.13;;;6.25;;
75589;SDS011;64169;47.240;11.312;2022-12-18T08:47:34;10.63;;;3.42;;
75589;SDS011;64169;47.240;11.312;2022-12-18T08:49:59;4.43;;;1.83;;
75589;SDS011;64169;47.240;11.312;2022-12-18T08:52:25;4.30;;;1.98;;
75589;SDS011;64169;47.240;11.312;2022-12-18T08:54:50;4.50;;;2.42;;
75589;SDS011;64169;47.240;11.312;2022-12-18T08:57:15;4.80;;;2.15;;
75589;SDS011;64169;47.240;11.312;2022-12-18T08:59:41;9.10;;;3.10;;
75589;SDS011;64169;47.240;11.312;2022-12-18T09:02:08;8.00;;;3.95;;
75589;SDS011;64169;47.240;11.312;2022-12-18T09:04:37;8.38;;;4.18;;
75589;SDS011;64169;47.240;11.312;2022-12-18T09:07:05;8.15;;;5.03;;
75589;SDS011;64169;47.240;11.312;2022-12-18T09:09:30;13.15;;;5.55;;
75589;SDS011;64169;47.240;11.312;2022-12-18T09:11:56;11.25;;;4.95;;
75589;SDS011;64169;47.240;11.312;2022-12-18T09:14:21;4.47;;;2.20;;
75589;SDS011;64169;47.240;11.312;2022-12-18T09:16:46;4.13;;;1.73;;
75589;SDS011;64169;47.240;11.312;2022-12-18T09:19:12;4.65;;;2.15;;
75589;SDS011;64169;47.240;11.312;2022-12-18T09:21:37;3.65;;;1.52;;
75589;SDS011;64169;47.240;11.312;2022-12-18T09:24:04;1.95;;;1.00;;
75589;SDS011;64169;47.240;11.312;2022-12-18T09:29:45;3.78;;;1.58;;
75589;SDS011;64169;47.240;11.312;2022-12-18T09:32:10;4.13;;;1.83;;
75589;SDS011;64169;47.240;11.312;2022-12-18T09:34:35;3.63;;;1.70;;
75589;SDS011;64169;47.240;11.312;2022-12-18T09:37:01;5.05;;;2.20;;
75589;SDS011;64169;47.240;11.312;2022-12-18T09:39:27;4.07;;;1.80;;
75589;SDS011;64169;47.240;11.312;2022-12-18T09:41:56;8.45;;;3.42;;
75589;SDS011;64169;47.240;11.312;2022-12-18T09:46:53;9.30;;;3.17;;
75589;SDS011;64169;47.240;11.312;2022-12-18T09:49:23;6.15;;;2.97;;
75589;SDS011;64169;47.240;11.312;2022-12-18T09:51:55;10.05;;;4.00;;
75589;SDS011;64169;47.240;11.312;2022-12-18T09:55:28;6.03;;;2.63;;
75589;SDS011;64169;47.240;11.312;2022-12-18T09:57:26;6.55;;;2.30;;
75589;SDS011;64169;47.240;11.312;2022-12-18T09:59:56;7.78;;;3.47;;
75589;SDS011;64169;47.240;11.312;2022-12-18T10:02:30;8.52;;;3.55;;
75589;SDS011;64169;47.240;11.312;2022-12-18T10:05:12;8.07;;;2.65;;
75589;SDS011;64169;47.240;11.312;2022-12-18T10:18:02;7.20;;;2.35;;
75589;SDS011;64169;47.240;11.312;2022-12-18T10:20:47;10.30;;;3.15;;
75589;SDS011;64169;47.240;11.312;2022-12-18T10:26:12;6.90;;;3.05;;
75589;SDS011;64169;47.240;11.312;2022-12-18T10:28:39;9.10;;;4.03;;
75589;SDS011;64169;47.240;11.312;2022-12-18T10:31:06;8.00;;;2.67;;
75589;SDS011;64169;47.240;11.312;2022-12-18T10:33:32;5.43;;;2.78;;
75589;SDS011;64169;47.240;11.312;2022-12-18T10:35:58;7.20;;;3.22;;
75589;SDS011;64169;47.240;11.312;2022-12-18T10:38:26;5.88;;;2.83;;
75589;SDS011;64169;47.240;11.312;2022-12-18T10:40:56;6.28;;;2.30;;
75589;SDS011;64169;47.240;11.312;2022-12-18T10:43:37;6.15;;;2.60;;
75589;SDS011;64169;47.240;11.312;2022-12-18T10:48:33;5.18;;;2.28;;
75589;SDS011;64169;47.240;11.312;2022-12-18T10:50:59;5.05;;;1.90;;
75589;SDS011;64169;47.240;11.312;2022-12-18T10:53:26;7.05;;;1.63;;
75589;SDS011;64169;47.240;11.312;2022-12-18T10:55:53;5.80;;;2.08;;
75589;SDS011;64169;47.240;11.312;2022-12-18T11:08:41;7.18;;;2.55;;
75589;SDS011;64169;47.240;11.312;2022-12-18T11:11:15;7.40;;;2.35;;
75589;SDS011;64169;47.240;11.312;2022-12-18T11:13:50;7.80;;;3.20;;
75589;SDS011;64169;47.240;11.312;2022-12-18T11:16:29;11.75;;;3.92;;
75589;SDS011;64169;47.240;11.312;2022-12-18T11:19:08;10.27;;;5.40;;
75589;SDS011;64169;47.240;11.312;2022-12-18T11:21:47;7.22;;;2.92;;
75589;SDS011;64169;47.240;11.312;2022-12-18T11:24:19;7.43;;;2.65;;
75589;SDS011;64169;47.240;11.312;2022-12-18T11:26:48;5.28;;;1.98;;
75589;SDS011;64169;47.240;11.312;2022-12-18T11:29:17;6.68;;;1.95;;
75589;SDS011;64169;47.240;11.312;2022-12-18T11:31:43;6.07;;;1.95;;
75589;SDS011;64169;47.240;11.312;2022-12-18T11:34:52;5.57;;;1.77;;
75589;SDS011;64169;47.240;11.312;2022-12-18T11:36:58;5.65;;;2.15;;
75589;SDS011;64169;47.240;11.312;2022-12-18T11:39:35;7.15;;;2.38;;
75589;SDS011;64169;47.240;11.312;2022-12-18T11:42:11;7.70;;;2.53;;
75589;SDS011;64169;47.240;11.312;2022-12-18T11:50:02;5.82;;;2.10;;
75589;SDS011;64169;47.240;11.312;2022-12-18T11:52:32;6.85;;;1.92;;
75589;SDS011;64169;47.240;11.312;2022-12-18T11:55:04;7.22;;;2.67;;
75589;SDS011;64169;47.240;11.312;2022-12-18T11:57:54;7.95;;;2.58;;
75589;SDS011;64169;47.240;11.312;2022-12-18T12:00:27;5.97;;;2.50;;
75589;SDS011;64169;47.240;11.312;2022-12-18T12:13:23;7.25;;;2.15;;
75589;SDS011;64169;47.240;11.312;2022-12-18T12:21:54;5.00;;;1.90;;
75589;SDS011;64169;47.240;11.312;2022-12-18T12:27:00;7.95;;;2.40;;
75589;SDS011;64169;47.240;11.312;2022-12-18T12:35:21;5.75;;;2.22;;
75589;SDS011;64169;47.240;11.312;2022-12-18T12:40:22;6.63;;;2.97;;
75589;SDS011;64169;47.240;11.312;2022-12-18T12:50:48;8.73;;;4.00;;
75589;SDS011;64169;47.240;11.312;2022-12-18T12:53:18;7.65;;;3.88;;
75589;SDS011;64169;47.240;11.312;2022-12-18T12:58:21;6.13;;;2.40;;
75589;SDS011;64169;47.240;11.312;2022-12-18T13:00:55;6.25;;;2.55;;
75589;SDS011;64169;47.240;11.312;2022-12-18T13:06:23;5.43;;;1.92;;
75589;SDS011;64169;47.240;11.312;2022-12-18T13:08:54;5.03;;;1.67;;
75589;SDS011;64169;47.240;11.312;2022-12-18T13:11:41;3.38;;;1.17;;
75589;SDS011;64169;47.240;11.312;2022-12-18T13:14:27;4.22;;;1.60;;
75589;SDS011;64169;47.240;11.312;2022-12-18T13:17:16;5.35;;;1.58;;
75589;SDS011;64169;47.240;11.312;2022-12-18T13:25:26;7.18;;;2.67;;
75589;SDS011;64169;47.240;11.312;2022-12-18T13:28:11;8.60;;;2.30;;
75589;SDS011;64169;47.240;11.312;2022-12-18T13:30:48;10.38;;;2.92;;
75589;SDS011;64169;47.240;11.312;2022-12-18T13:43:46;15.80;;;6.55;;
75589;SDS011;64169;47.240;11.312;2022-12-18T13:46:28;8.13;;;2.63;;
75589;SDS011;64169;47.240;11.312;2022-12-18T13:48:56;4.70;;;1.90;;
75589;SDS011;64169;47.240;11.312;2022-12-18T13:51:24;6.30;;;2.50;;
75589;SDS011;64169;47.240;11.312;2022-12-18T13:53:51;4.18;;;1.60;;
75589;SDS011;64169;47.240;11.312;2022-12-18T13:56:26;6.90;;;1.42;;
75589;SDS011;64169;47.240;11.312;2022-12-18T14:01:58;16.48;;;7.35;;
75589;SDS011;64169;47.240;11.312;2022-12-18T14:04:33;9.57;;;4.47;;
75589;SDS011;64169;47.240;11.312;2022-12-18T14:07:03;7.57;;;3.33;;
75589;SDS011;64169;47.240;11.312;2022-12-18T14:11:58;6.82;;;3.05;;
75589;SDS011;64169;47.240;11.312;2022-12-18T14:14:44;9.00;;;3.58;;
75589;SDS011;64169;47.240;11.312;2022-12-18T14:17:12;8.10;;;2.70;;
75589;SDS011;64169;47.240;11.312;2022-12-18T14:19:42;5.20;;;2.15;;
75589;SDS011;64169;47.240;11.312;2022-12-18T14:22:16;7.85;;;3.25;;
75589;SDS011;64169;47.240;11.312;2022-12-18T14:24:43;7.13;;;2.55;;
75589;SDS011;64169;47.240;11.312;2022-12-18T14:27:22;11.02;;;3.85;;
75589;SDS011;64169;47.240;11.312;2022-12-18T14:29:49;25.65;;;9.60;;
75589;SDS011;64169;47.240;11.312;2022-12-18T14:32:18;20.77;;;8.45;;
75589;SDS011;64169;47.240;11.312;2022-12-18T14:37:15;10.95;;;4.97;;
75589;SDS011;64169;47.240;11.312;2022-12-18T14:40:04;7.40;;;3.25;;
75589;SDS011;64169;47.240;11.312;2022-12-18T14:42:30;9.80;;;4.22;;
75589;SDS011;64169;47.240;11.312;2022-12-18T14:50:24;4.25;;;2.08;;
75589;SDS011;64169;47.240;11.312;2022-12-18T14:52:50;8.32;;;2.45;;
75589;SDS011;64169;47.240;11.312;2022-12-18T14:55:19;6.40;;;3.38;;
75589;SDS011;64169;47.240;11.312;2022-12-18T14:57:45;9.85;;;4.60;;
75589;SDS011;64169;47.240;11.312;2022-12-18T15:00:16;14.75;;;5.65;;
75589;SDS011;64169;47.240;11.312;2022-12-18T15:02:44;10.15;;;4.57;;
75589;SDS011;64169;47.240;11.312;2022-12-18T15:10:12;7.75;;;2.83;;
75589;SDS011;64169;47.240;11.312;2022-12-18T15:18:03;4.35;;;1.90;;
75589;SDS011;64169;47.240;11.312;2022-12-18T15:25:47;8.75;;;3.70;;
75589;SDS011;64169;47.240;11.312;2022-12-18T15:28:44;6.75;;;2.88;;
75589;SDS011;64169;47.240;11.312;2022-12-18T15:34:10;12.32;;;4.90;;
75589;SDS011;64169;47.240;11.312;2022-12-18T15:36:37;17.70;;;5.70;;
75589;SDS011;64169;47.240;11.312;2022-12-18T15:39:03;20.13;;;6.65;;
75589;SDS011;64169;47.240;11.312;2022-12-18T15:41:30;12.38;;;5.63;;
75589;SDS011;64169;47.240;11.312;2022-12-18T15:43:57;13.70;;;5.65;;
75589;SDS011;64169;47.240;11.312;2022-12-18T15:46:23;10.07;;;2.63;;
75589;SDS011;64169;47.240;11.312;2022-12-18T15:48:50;6.55;;;2.28;;
75589;SDS011;64169;47.240;11.312;2022-12-18T15:51:18;7.10;;;1.83;;
75589;SDS011;64169;47.240;11.312;2022-12-18T15:53:45;10.48;;;3.25;;
75589;SDS011;64169;47.240;11.312;2022-12-18T15:56:13;5.68;;;2.35;;
75589;SDS011;64169;47.240;11.312;2022-12-18T15:58:58;6.60;;;2.13;;
75589;SDS011;64169;47.240;11.312;2022-12-18T16:01:25;12.45;;;4.47;;
75589;SDS011;64169;47.240;11.312;2022-12-18T16:03:52;13.25;;;6.32;;
75589;SDS011;64169;47.240;11.312;2022-12-18T16:06:18;10.60;;;5.20;;
75589;SDS011;64169;47.240;11.312;2022-12-18T16:08:43;8.10;;;3.22;;
75589;SDS011;64169;47.240;11.312;2022-12-18T16:11:16;56.60;;;17.10;;
75589;SDS011;64169;47.240;11.312;2022-12-18T16:14:02;20.33;;;9.15;;
75589;SDS011;64169;47.240;11.312;2022-12-18T16:16:31;7.65;;;2.75;;
75589;SDS011;64169;47.240;11.312;2022-12-18T16:18:56;3.95;;;1.60;;
75589;SDS011;64169;47.240;11.312;2022-12-18T16:21:21;10.32;;;3.80;;
75589;SDS011;64169;47.240;11.312;2022-12-18T16:23:47;8.40;;;4.90;;
75589;SDS011;64169;47.240;11.312;2022-12-18T16:26:12;6.35;;;2.75;;
75589;SDS011;64169;47.240;11.312;2022-12-18T16:28:38;6.07;;;2.53;;
75589;SDS011;64169;47.240;11.312;2022-12-18T16:31:04;9.45;;;3.50;;
75589;SDS011;64169;47.240;11.312;2022-12-18T16:33:29;9.57;;;4.45;;
75589;SDS011;64169;47.240;11.312;2022-12-18T16:35:55;5.53;;;2.58;;
75589;SDS011;64169;47.240;11.312;2022-12-18T16:38:20;7.75;;;3.45;;
75589;SDS011;64169;47.240;11.312;2022-12-18T16:40:46;8.40;;;3.60;;
75589;SDS011;64169;47.240;11.312;2022-12-18T16:43:30;7.78;;;3.60;;
75589;SDS011;64169;47.240;11.312;2022-12-18T16:45:57;7.97;;;3.40;;
75589;SDS011;64169;47.240;11.312;2022-12-18T16:48:23;6.72;;;4.05;;
75589;SDS011;64169;47.240;11.312;2022-12-18T16:50:48;6.75;;;2.88;;
75589;SDS011;64169;47.240;11.312;2022-12-18T16:53:14;4.93;;;2.17;;
75589;SDS011;64169;47.240;11.312;2022-12-18T16:55:39;5.63;;;1.80;;
75589;SDS011;64169;47.240;11.312;2022-12-18T16:58:05;39.22;;;16.08;;
75589;SDS011;64169;47.240;11.312;2022-12-18T17:00:30;15.30;;;6.30;;
75589;SDS011;64169;47.240;11.312;2022-12-18T17:02:55;8.68;;;3.67;;
75589;SDS011;64169;47.240;11.312;2022-12-18T17:05:21;6.20;;;2.65;;
75589;SDS011;64169;47.240;11.312;2022-12-18T17:07:46;6.57;;;3.40;;
75589;SDS011;64169;47.240;11.312;2022-12-18T17:10:12;7.38;;;3.15;;
75589;SDS011;64169;47.240;11.312;2022-12-18T17:12:37;7.47;;;3.38;;
75589;SDS011;64169;47.240;11.312;2022-12-18T17:15:03;10.60;;;4.63;;
75589;SDS011;64169;47.240;11.312;2022-12-18T17:17:28;7.47;;;3.17;;